createdAt,value
2018-07-27T00:01:24.923Z,96.70
2018-07-27T00:03:52.471Z,97.00
2018-07-27T00:06:20.000Z,97.10
2018-07-27T00:08:47.592Z,97.20
2018-07-27T00:11:15.146Z,97.30
2018-07-27T00:13:42.702Z,97.40
2018-07-27T00:18:38.652Z,97.70
2018-07-27T00:23:34.744Z,98.00
2018-07-27T00:26:02.314Z,98.20
2018-07-27T00:28:29.910Z,98.20
2018-07-27T00:30:57.472Z,98.40
2018-07-27T00:33:25.135Z,98.40
2018-07-27T00:35:52.757Z,98.60
2018-07-27T00:38:20.351Z,99.10
2018-07-27T00:40:47.952Z,98.80
2018-07-27T00:45:49.788Z,99.10
2018-07-27T00:48:17.372Z,99.20
2018-07-27T00:50:44.911Z,99.30
2018-07-27T00:53:12.472Z,99.30
2018-07-27T00:55:40.488Z,99.40
2018-07-27T00:58:08.040Z,99.40
2018-07-27T01:00:35.582Z,99.40
2018-07-27T01:03:03.182Z,99.40
2018-07-27T01:05:30.729Z,99.40
2018-07-27T01:07:58.270Z,99.30
2018-07-27T01:10:25.918Z,99.20
2018-07-27T01:12:53.464Z,99.20
2018-07-27T01:15:21.041Z,99.30
2018-07-27T01:17:48.610Z,99.40
2018-07-27T01:20:16.159Z,99.50
2018-07-27T01:22:43.738Z,99.60
2018-07-27T01:25:11.299Z,99.70
2018-07-27T01:30:07.121Z,99.90
2018-07-27T01:32:35.005Z,99.90
2018-07-27T01:35:02.637Z,99.90
2018-07-27T01:37:30.249Z,99.90
2018-07-27T01:39:57.794Z,99.90
2018-07-27T01:42:25.355Z,99.90
2018-07-27T01:44:52.909Z,99.90
2018-07-27T01:48:50.049Z,99.90
2018-07-27T01:51:17.599Z,99.90
2018-07-27T01:53:45.117Z,99.90
2018-07-27T01:56:12.650Z,99.90
2018-07-27T01:58:40.259Z,99.90
2018-07-27T02:01:07.792Z,99.90
2018-07-27T02:03:35.361Z,99.90
2018-07-27T02:06:02.978Z,99.90
2018-07-27T02:08:30.525Z,99.90
2018-07-27T02:10:58.152Z,99.90
2018-07-27T02:13:25.687Z,99.90
2018-07-27T02:15:53.298Z,99.90
2018-07-27T02:18:20.828Z,99.90
2018-07-27T02:20:48.372Z,99.90
2018-07-27T02:23:16.845Z,99.90
2018-07-27T02:25:44.390Z,99.90
2018-07-27T02:28:11.930Z,99.90
2018-07-27T02:30:39.524Z,99.90
2018-07-27T02:33:07.088Z,99.90
2018-07-27T02:35:34.656Z,99.90
2018-07-27T02:38:02.201Z,99.90
2018-07-27T02:40:29.796Z,99.90
2018-07-27T02:42:57.371Z,99.90
2018-07-27T02:45:24.976Z,99.90
2018-07-27T02:47:52.579Z,99.90
2018-07-27T02:50:20.196Z,99.90
2018-07-27T02:52:47.778Z,99.90
2018-07-27T02:57:42.899Z,99.90
2018-07-27T03:00:10.494Z,99.90
2018-07-27T03:02:38.082Z,99.90
2018-07-27T03:05:05.985Z,99.90
2018-07-27T03:07:33.604Z,99.90
2018-07-27T03:10:01.218Z,99.90
2018-07-27T03:12:28.757Z,99.90
2018-07-27T03:14:56.306Z,99.90
2018-07-27T03:17:23.896Z,99.90
2018-07-27T03:19:51.461Z,99.90
2018-07-27T03:22:19.033Z,99.90
2018-07-27T03:24:46.610Z,99.90
2018-07-27T03:27:14.240Z,99.90
2018-07-27T03:29:41.821Z,99.90
2018-07-27T03:32:09.381Z,99.90
2018-07-27T03:34:37.008Z,99.90
2018-07-27T03:37:04.610Z,99.90
2018-07-27T03:39:32.198Z,99.90
2018-07-27T03:41:59.780Z,99.90
2018-07-27T03:44:27.339Z,99.90
2018-07-27T03:46:54.970Z,99.90
2018-07-27T03:49:22.533Z,99.90
2018-07-27T03:51:50.105Z,99.90
2018-07-27T03:54:17.657Z,99.90
2018-07-27T03:56:45.227Z,99.90
2018-07-27T03:59:12.775Z,99.90
2018-07-27T04:01:40.364Z,99.90
2018-07-27T04:04:07.897Z,99.90
2018-07-27T04:06:35.663Z,99.90
2018-07-27T04:09:05.347Z,99.90
2018-07-27T04:11:32.915Z,99.90
2018-07-27T04:14:00.599Z,99.90
2018-07-27T04:16:28.141Z,99.90
2018-07-27T04:18:55.693Z,99.90
2018-07-27T04:21:23.245Z,99.90
2018-07-27T04:23:50.777Z,99.90
2018-07-27T04:26:18.404Z,99.90
2018-07-27T04:28:45.955Z,99.90
2018-07-27T04:31:13.587Z,99.90
2018-07-27T04:33:41.191Z,99.90
2018-07-27T04:36:08.797Z,99.90
2018-07-27T04:38:36.586Z,99.90
2018-07-27T04:41:04.218Z,99.90
2018-07-27T04:43:32.009Z,99.90
2018-07-27T04:48:27.308Z,99.90
2018-07-27T04:50:54.938Z,99.90
2018-07-27T04:53:22.486Z,99.90
2018-07-27T04:55:50.066Z,99.90
2018-07-27T04:58:17.613Z,99.90
2018-07-27T05:00:45.156Z,99.90
2018-07-27T05:03:12.832Z,99.90
2018-07-27T05:05:40.566Z,99.90
2018-07-27T05:08:08.118Z,99.90
2018-07-27T05:10:41.322Z,99.90
2018-07-27T05:13:08.930Z,99.90
2018-07-27T05:15:36.486Z,99.90
2018-07-27T05:18:04.036Z,99.90
2018-07-27T05:20:31.788Z,99.90
2018-07-27T05:22:59.352Z,99.90
2018-07-27T05:25:26.921Z,99.90
2018-07-27T05:27:54.546Z,99.90
2018-07-27T05:30:23.049Z,99.90
2018-07-27T05:32:50.666Z,99.90
2018-07-27T05:35:18.230Z,99.90
2018-07-27T05:37:45.829Z,99.90
2018-07-27T05:40:13.431Z,99.90
2018-07-27T05:42:41.014Z,99.90
2018-07-27T05:47:36.144Z,99.90
2018-07-27T05:50:04.492Z,99.90
2018-07-27T05:52:32.046Z,99.90
2018-07-27T05:54:59.645Z,99.90
2018-07-27T05:57:27.214Z,99.40
2018-07-27T05:59:54.781Z,99.20
2018-07-27T06:02:22.374Z,99.00
2018-07-27T06:04:49.986Z,98.80
2018-07-27T06:07:17.522Z,98.70
2018-07-27T06:09:45.115Z,98.50
2018-07-27T06:12:12.729Z,98.30
2018-07-27T06:14:40.229Z,98.30
2018-07-27T06:17:08.016Z,98.10
2018-07-27T06:19:35.594Z,98.00
2018-07-27T06:22:03.293Z,97.60
2018-07-27T06:24:52.708Z,97.20
2018-07-27T06:27:20.369Z,97.10
2018-07-27T06:29:48.354Z,97.30
2018-07-27T06:32:16.319Z,97.20
2018-07-27T06:34:44.312Z,96.90
2018-07-27T06:37:12.278Z,96.10
2018-07-27T06:39:41.150Z,96.10
2018-07-27T06:42:08.752Z,95.60
2018-07-27T06:44:36.510Z,95.40
2018-07-27T06:47:04.515Z,94.90
2018-07-27T06:49:32.185Z,94.80
2018-07-27T06:51:59.793Z,95.00
2018-07-27T06:54:27.383Z,94.80
2018-07-27T06:56:55.118Z,94.70
2018-07-27T06:59:22.685Z,94.60
2018-07-27T07:01:50.247Z,94.50
2018-07-27T07:04:17.860Z,94.20
2018-07-27T07:06:45.453Z,94.10
2018-07-27T07:09:13.029Z,94.00
2018-07-27T07:11:40.785Z,93.90
2018-07-27T07:14:08.651Z,93.50
2018-07-27T07:16:37.153Z,93.20
2018-07-27T07:19:05.643Z,92.90
2018-07-27T07:21:33.305Z,92.70
2018-07-27T07:24:01.032Z,92.50
2018-07-27T07:26:28.612Z,92.30
2018-07-27T07:28:56.543Z,92.00
2018-07-27T07:33:51.574Z,91.40
2018-07-27T07:36:19.150Z,91.40
2018-07-27T07:41:14.281Z,91.10
2018-07-27T07:46:09.394Z,91.00
2018-07-27T07:48:37.574Z,90.80
2018-07-27T07:51:05.431Z,90.70
2018-07-27T07:53:33.026Z,90.60
2018-07-27T07:56:00.660Z,90.20
2018-07-27T07:58:28.254Z,90.00
2018-07-27T08:00:56.547Z,89.40
2018-07-27T08:03:24.176Z,89.20
2018-07-27T08:05:51.750Z,89.70
2018-07-27T08:08:19.338Z,89.60
2018-07-27T08:10:47.117Z,89.60
2018-07-27T08:13:14.686Z,88.70
2018-07-27T08:15:42.282Z,88.80
2018-07-27T08:18:09.934Z,87.90
2018-07-27T08:20:37.720Z,86.80
2018-07-27T08:23:05.332Z,86.00
2018-07-27T08:26:41.296Z,85.70
2018-07-27T08:29:12.053Z,85.00
2018-07-27T08:31:41.012Z,84.50
2018-07-27T08:34:08.685Z,84.30
2018-07-27T08:36:36.326Z,84.00
2018-07-27T08:39:06.890Z,83.40
2018-07-27T08:41:34.958Z,82.40
2018-07-27T08:44:02.631Z,83.00
2018-07-27T08:46:30.233Z,82.00
2018-07-27T08:48:57.912Z,82.50
2018-07-27T08:51:25.580Z,82.10
2018-07-27T08:53:53.654Z,81.30
2018-07-27T08:56:21.254Z,81.80
2018-07-27T08:58:48.828Z,80.30
2018-07-27T09:01:16.522Z,80.10
2018-07-27T09:03:44.408Z,80.10
2018-07-27T09:06:11.954Z,81.10
2018-07-27T09:08:39.805Z,81.20
2018-07-27T09:11:07.420Z,81.30
2018-07-27T09:13:34.978Z,81.20
2018-07-27T09:16:02.587Z,81.40
2018-07-27T09:18:30.170Z,80.70
2018-07-27T09:20:57.733Z,79.70
2018-07-27T09:23:25.759Z,79.90
2018-07-27T09:25:53.385Z,79.70
2018-07-27T09:28:20.953Z,79.90
2018-07-27T09:30:48.562Z,79.40
2018-07-27T09:33:16.146Z,78.30
2018-07-27T09:35:43.713Z,77.30
2018-07-27T09:38:11.277Z,76.50
2018-07-27T09:40:39.181Z,76.80
2018-07-27T09:43:06.742Z,74.90
2018-07-27T09:45:34.337Z,73.90
2018-07-27T09:48:01.886Z,72.60
2018-07-27T09:52:57.011Z,72.90
2018-07-27T09:55:24.526Z,74.70
2018-07-27T09:57:52.072Z,74.40
2018-07-27T10:00:25.306Z,74.00
2018-07-27T10:02:52.873Z,73.40
2018-07-27T10:05:20.540Z,72.70
2018-07-27T10:07:48.228Z,71.60
2018-07-27T10:10:15.895Z,71.50
2018-07-27T10:15:11.269Z,67.30
2018-07-27T10:17:38.988Z,65.60
2018-07-27T10:20:06.739Z,65.00
2018-07-27T10:25:01.886Z,64.60
2018-07-27T10:27:29.478Z,64.10
2018-07-27T10:29:57.051Z,63.00
2018-07-27T10:32:24.664Z,61.80
2018-07-27T10:34:52.261Z,59.30
2018-07-27T10:37:19.945Z,57.80
2018-07-27T10:39:47.517Z,57.10
2018-07-27T10:42:15.237Z,57.30
2018-07-27T10:44:42.953Z,56.70
2018-07-27T10:47:10.536Z,55.80
2018-07-27T10:49:38.123Z,55.40
2018-07-27T10:52:05.745Z,55.50
2018-07-27T10:54:33.339Z,55.10
2018-07-27T10:57:00.917Z,55.10
2018-07-27T10:59:28.501Z,54.60
2018-07-27T11:01:56.062Z,54.60
2018-07-27T11:04:23.651Z,54.00
2018-07-27T11:06:51.259Z,53.70
2018-07-27T11:09:18.849Z,51.60
2018-07-27T11:11:46.504Z,49.50
2018-07-27T11:14:14.186Z,48.40
2018-07-27T11:16:42.614Z,47.90
2018-07-27T11:19:10.221Z,47.50
2018-07-27T11:21:37.806Z,47.90
2018-07-27T11:24:05.440Z,47.70
2018-07-27T11:26:32.997Z,47.00
2018-07-27T11:29:00.563Z,46.40
2018-07-27T11:31:28.263Z,46.40
2018-07-27T11:33:55.832Z,46.20
2018-07-27T11:36:23.383Z,45.70
2018-07-27T11:38:50.985Z,46.40
2018-07-27T11:41:18.617Z,46.60
2018-07-27T11:43:46.171Z,46.20
2018-07-27T11:46:13.806Z,45.60
2018-07-27T11:48:42.768Z,45.50
2018-07-27T11:51:10.313Z,44.70
2018-07-27T11:53:37.860Z,44.20
2018-07-27T11:56:05.498Z,44.10
2018-07-27T11:58:33.126Z,42.90
2018-07-27T12:01:00.902Z,42.10
2018-07-27T12:03:28.488Z,42.30
2018-07-27T12:05:56.164Z,43.20
2018-07-27T12:08:23.720Z,43.70
2018-07-27T12:10:51.272Z,44.40
2018-07-27T12:13:18.822Z,44.70
2018-07-27T12:15:46.373Z,44.50
2018-07-27T12:18:13.969Z,44.40
2018-07-27T12:20:41.840Z,43.50
2018-07-27T12:23:09.333Z,43.00
2018-07-27T12:25:36.925Z,42.60
2018-07-27T12:28:04.526Z,42.60
2018-07-27T12:30:32.086Z,40.90
2018-07-27T12:32:59.639Z,40.00
2018-07-27T12:35:27.273Z,40.80
2018-07-27T12:37:54.867Z,42.60
2018-07-27T12:40:23.173Z,42.40
2018-07-27T12:42:50.712Z,41.90
2018-07-27T12:45:18.318Z,41.40
2018-07-27T12:47:45.882Z,41.10
2018-07-27T12:50:13.446Z,40.60
2018-07-27T12:52:41.795Z,39.70
2018-07-27T12:55:09.369Z,38.90
2018-07-27T12:57:36.957Z,39.00
2018-07-27T13:00:06.153Z,38.30
2018-07-27T13:02:33.693Z,36.70
2018-07-27T13:05:01.286Z,36.20
2018-07-27T13:07:28.938Z,36.30
2018-07-27T13:10:02.037Z,36.60
2018-07-27T13:12:29.596Z,36.90
2018-07-27T13:14:57.965Z,36.80
2018-07-27T13:17:25.519Z,36.10
2018-07-27T13:19:53.085Z,36.20
2018-07-27T13:22:20.875Z,36.60
2018-07-27T13:27:15.941Z,36.30
2018-07-27T13:29:43.559Z,35.10
2018-07-27T13:32:11.133Z,35.70
2018-07-27T13:34:55.865Z,36.60
2018-07-27T13:37:38.323Z,36.60
2018-07-27T13:40:06.075Z,37.10
2018-07-27T13:42:34.953Z,37.20
2018-07-27T13:45:02.595Z,37.00
2018-07-27T13:47:30.162Z,36.10
2018-07-27T13:49:57.740Z,36.10
2018-07-27T13:52:25.358Z,36.30
2018-07-27T13:54:53.070Z,36.40
2018-07-27T13:57:20.666Z,35.40
2018-07-27T13:59:48.290Z,35.50
2018-07-27T14:02:15.884Z,35.50
2018-07-27T14:04:43.599Z,36.10
2018-07-27T14:07:11.747Z,35.80
2018-07-27T14:09:39.316Z,35.80
2018-07-27T14:12:06.927Z,34.80
2018-07-27T14:14:34.477Z,35.10
2018-07-27T14:17:02.081Z,35.10
2018-07-27T14:19:29.974Z,35.00
2018-07-27T14:21:57.604Z,34.80
2018-07-27T14:24:25.193Z,35.10
2018-07-27T14:26:52.833Z,35.80
2018-07-27T14:29:20.456Z,35.50
2018-07-27T14:31:47.995Z,35.40
2018-07-27T14:34:15.684Z,34.70
2018-07-27T14:36:44.129Z,34.70
2018-07-27T14:39:12.998Z,34.90
2018-07-27T14:41:40.895Z,34.50
2018-07-27T14:44:08.542Z,33.90
2018-07-27T14:46:36.453Z,34.20
2018-07-27T14:49:08.945Z,33.70
2018-07-27T14:51:36.530Z,33.40
2018-07-27T14:54:05.097Z,34.00
2018-07-27T14:56:32.698Z,34.00
2018-07-27T14:59:00.205Z,33.90
2018-07-27T15:01:27.824Z,33.50
2018-07-27T15:03:55.457Z,33.90
2018-07-27T15:06:23.011Z,35.10
2018-07-27T15:08:50.559Z,35.50
2018-07-27T15:11:18.154Z,36.60
2018-07-27T15:13:45.737Z,35.10
2018-07-27T15:18:40.771Z,34.40
2018-07-27T15:21:08.301Z,34.10
2018-07-27T15:23:35.903Z,34.40
2018-07-27T15:26:03.547Z,33.90
2018-07-27T15:28:31.102Z,33.80
2018-07-27T15:30:58.695Z,33.60
2018-07-27T15:33:26.229Z,33.30
2018-07-27T15:35:53.865Z,33.60
2018-07-27T15:38:21.405Z,33.60
2018-07-27T15:40:49.007Z,33.60
2018-07-27T15:43:16.577Z,32.80
2018-07-27T15:45:44.138Z,32.90
2018-07-27T15:48:11.841Z,33.30
2018-07-27T15:50:39.407Z,33.60
2018-07-27T15:53:06.950Z,33.30
2018-07-27T15:55:34.528Z,33.80
2018-07-27T15:58:02.183Z,34.60
2018-07-27T16:00:29.777Z,35.70
2018-07-27T16:02:57.307Z,36.20
2018-07-27T16:05:24.904Z,36.40
2018-07-27T16:07:52.504Z,36.30
2018-07-27T16:10:20.087Z,36.40
2018-07-27T16:12:47.743Z,36.70
2018-07-27T16:15:15.301Z,37.10
2018-07-27T16:17:42.907Z,37.10
2018-07-27T16:20:10.528Z,36.50
2018-07-27T16:22:38.087Z,36.40
2018-07-27T16:25:05.675Z,36.30
2018-07-27T16:27:33.406Z,37.10
2018-07-27T16:30:00.954Z,37.40
2018-07-27T16:32:28.556Z,37.80
2018-07-27T16:34:56.182Z,37.70
2018-07-27T16:37:23.806Z,37.60
2018-07-27T16:39:51.577Z,38.00
2018-07-27T16:42:19.266Z,37.60
2018-07-27T16:44:46.870Z,38.10
2018-07-27T16:47:14.432Z,38.60
2018-07-27T16:49:42.029Z,38.30
2018-07-27T16:52:09.608Z,38.50
2018-07-27T16:54:37.184Z,38.40
2018-07-27T16:57:04.822Z,38.40
2018-07-27T16:59:32.366Z,38.70
2018-07-27T17:01:59.937Z,38.90
2018-07-27T17:06:55.018Z,39.60
2018-07-27T17:09:22.638Z,40.60
2018-07-27T17:11:50.214Z,40.10
2018-07-27T17:14:17.781Z,39.90
2018-07-27T17:16:45.376Z,40.30
2018-07-27T17:19:12.978Z,39.90
2018-07-27T17:21:40.597Z,40.10
2018-07-27T17:24:08.206Z,40.00
2018-07-27T17:26:35.734Z,40.20
2018-07-27T17:29:03.352Z,40.90
2018-07-27T17:31:30.959Z,41.70
2018-07-27T17:33:58.643Z,42.20
2018-07-27T17:36:26.252Z,42.80
2018-07-27T17:38:53.828Z,43.50
2018-07-27T17:41:21.467Z,44.30
2018-07-27T17:43:49.042Z,45.20
2018-07-27T17:46:16.666Z,46.00
2018-07-27T17:51:11.721Z,47.50
2018-07-27T17:53:39.319Z,48.00
2018-07-27T17:56:06.998Z,48.40
2018-07-27T17:58:34.589Z,48.90
2018-07-27T18:01:02.275Z,49.20
2018-07-27T18:03:29.880Z,49.40
2018-07-27T18:05:57.457Z,49.70
2018-07-27T18:08:25.083Z,50.00
2018-07-27T18:10:52.679Z,50.10
2018-07-27T18:13:20.235Z,50.30
2018-07-27T18:15:47.848Z,50.50
2018-07-27T18:18:15.463Z,50.70
2018-07-27T18:20:43.199Z,50.80
2018-07-27T18:23:11.651Z,51.10
2018-07-27T18:25:39.297Z,51.30
2018-07-27T18:28:06.877Z,51.50
2018-07-27T18:30:34.458Z,52.30
2018-07-27T18:33:02.094Z,52.10
2018-07-27T18:35:29.705Z,52.40
2018-07-27T18:37:57.316Z,52.80
2018-07-27T18:40:25.044Z,53.10
2018-07-27T18:42:52.648Z,53.40
2018-07-27T18:45:20.275Z,54.10
2018-07-27T18:47:47.897Z,54.30
2018-07-27T18:50:15.532Z,54.40
2018-07-27T18:52:43.170Z,54.70
2018-07-27T18:55:10.768Z,54.90
2018-07-27T18:57:38.355Z,55.20
2018-07-27T19:00:05.977Z,55.70
2018-07-27T19:05:01.111Z,58.00
2018-07-27T19:07:28.696Z,58.70
2018-07-27T19:09:56.306Z,59.60
2018-07-27T19:12:23.921Z,60.10
2018-07-27T19:14:51.523Z,61.10
2018-07-27T19:17:19.210Z,62.30
2018-07-27T19:19:46.870Z,63.30
2018-07-27T19:22:14.567Z,64.30
2018-07-27T19:24:42.173Z,65.30
2018-07-27T19:27:09.813Z,66.00
2018-07-27T19:29:37.414Z,67.40
2018-07-27T19:32:05.087Z,68.50
2018-07-27T19:34:32.678Z,68.80
2018-07-27T19:39:27.770Z,69.50
2018-07-27T19:41:55.486Z,69.40
2018-07-27T19:44:23.104Z,69.60
2018-07-27T19:46:50.665Z,70.10
2018-07-27T19:49:18.227Z,70.80
2018-07-27T19:51:45.887Z,71.50
2018-07-27T19:56:40.991Z,72.90
2018-07-27T19:59:08.611Z,73.40
2018-07-27T20:01:36.179Z,74.00
2018-07-27T20:04:03.945Z,73.50
2018-07-27T20:06:31.521Z,73.60
2018-07-27T20:08:59.087Z,74.00
2018-07-27T20:11:26.769Z,74.30
2018-07-27T20:13:54.383Z,74.90
2018-07-27T20:16:21.971Z,74.80
2018-07-27T20:18:49.542Z,75.30
2018-07-27T20:21:17.172Z,76.00
2018-07-27T20:23:44.794Z,77.00
2018-07-27T20:28:46.918Z,77.70
2018-07-27T20:31:14.511Z,78.90
2018-07-27T20:33:42.105Z,79.00
2018-07-27T20:36:09.716Z,80.60
2018-07-27T20:38:37.249Z,81.20
2018-07-27T20:41:04.938Z,82.10
2018-07-27T20:43:32.509Z,83.30
2018-07-27T20:46:00.105Z,84.10
2018-07-27T20:48:27.682Z,84.80
2018-07-27T20:50:55.264Z,85.00
2018-07-27T20:53:22.853Z,85.00
2018-07-27T20:55:50.429Z,85.20
2018-07-27T20:58:18.026Z,85.70
2018-07-27T21:00:46.486Z,86.50
2018-07-27T21:03:14.092Z,87.40
2018-07-27T21:05:41.691Z,88.60
2018-07-27T21:08:09.303Z,89.40
2018-07-27T21:10:36.917Z,89.50
2018-07-27T21:13:04.531Z,89.30
2018-07-27T21:15:32.145Z,89.00
2018-07-27T21:17:59.719Z,89.20
2018-07-27T21:20:27.296Z,90.00
2018-07-27T21:22:54.828Z,90.30
2018-07-27T21:25:22.376Z,90.60
2018-07-27T21:27:49.962Z,91.20
2018-07-27T21:30:17.576Z,91.30
2018-07-27T21:32:45.178Z,91.20
2018-07-27T21:35:12.893Z,91.10
2018-07-27T21:37:40.425Z,91.00
2018-07-27T21:40:08.073Z,91.20
2018-07-27T21:42:36.674Z,91.50
2018-07-27T21:45:04.750Z,91.60
2018-07-27T21:47:32.301Z,91.60
2018-07-27T21:50:01.563Z,91.70
2018-07-27T21:52:29.207Z,91.80
2018-07-27T21:54:58.099Z,91.90
2018-07-27T21:57:27.675Z,92.20
2018-07-27T21:59:55.761Z,92.30
2018-07-27T22:02:24.199Z,92.20
2018-07-27T22:04:51.801Z,92.40
2018-07-27T22:09:46.851Z,93.00
2018-07-27T22:12:16.334Z,93.00
2018-07-27T22:14:44.057Z,93.10
2018-07-27T22:17:12.195Z,93.10
2018-07-27T22:19:39.829Z,93.20
2018-07-27T22:22:07.450Z,93.50
2018-07-27T22:24:35.001Z,93.90
2018-07-27T22:27:02.618Z,94.50
2018-07-27T22:29:30.163Z,94.90
2018-07-27T22:31:57.747Z,95.20
2018-07-27T22:34:25.305Z,95.30
2018-07-27T22:36:52.857Z,95.40
2018-07-27T22:39:20.404Z,95.40
2018-07-27T22:41:48.110Z,95.80
2018-07-27T22:44:15.643Z,96.10
2018-07-27T22:46:43.256Z,96.60
2018-07-27T22:49:10.876Z,96.90
2018-07-27T22:51:38.474Z,96.90
2018-07-27T22:54:06.017Z,97.10
2018-07-27T22:56:33.623Z,97.20
2018-07-27T22:59:01.180Z,97.60
2018-07-27T23:06:30.468Z,97.50
2018-07-27T23:08:58.020Z,97.70
2018-07-27T23:11:25.584Z,97.80
2018-07-27T23:13:53.160Z,97.90
2018-07-27T23:16:20.747Z,97.70
2018-07-27T23:18:48.297Z,97.70
2018-07-27T23:21:15.878Z,97.80
2018-07-27T23:23:43.469Z,97.80
2018-07-27T23:26:11.046Z,97.80
2018-07-27T23:28:38.580Z,97.90
2018-07-27T23:31:06.152Z,98.00
2018-07-27T23:33:33.738Z,98.20
2018-07-27T23:36:01.299Z,98.20
2018-07-27T23:38:28.918Z,98.40
2018-07-27T23:40:56.500Z,98.60
2018-07-27T23:43:24.088Z,98.70
2018-07-27T23:45:51.696Z,98.90
2018-07-27T23:48:19.342Z,98.90
2018-07-27T23:50:46.910Z,98.90
2018-07-27T23:53:14.524Z,98.90
2018-07-27T23:55:42.204Z,98.70
2018-07-27T23:58:09.788Z,98.70
